createdAt,value
2018-08-24T00:00:12.630Z,4.90
2018-08-24T00:02:39.941Z,5.10
2018-08-24T00:05:07.886Z,5.23
2018-08-24T00:07:35.213Z,4.63
2018-08-24T00:10:02.504Z,4.70
2018-08-24T00:12:29.822Z,4.90
2018-08-24T00:14:57.143Z,4.90
2018-08-24T00:17:24.427Z,5.07
2018-08-24T00:19:51.724Z,5.23
2018-08-24T00:22:19.050Z,4.73
2018-08-24T00:24:46.366Z,5.10
2018-08-24T00:27:13.791Z,5.10
2018-08-24T00:29:41.093Z,5.83
2018-08-24T00:32:08.426Z,4.90
2018-08-24T00:34:35.726Z,5.27
2018-08-24T00:37:03.058Z,5.17
2018-08-24T00:39:30.386Z,5.90
2018-08-24T00:41:57.685Z,4.83
2018-08-24T00:44:25.018Z,5.00
2018-08-24T00:46:52.298Z,4.90
2018-08-24T00:49:20.023Z,7.80
2018-08-24T00:51:47.336Z,8.63
2018-08-24T00:54:14.650Z,8.73
2018-08-24T00:56:41.955Z,8.87
2018-08-24T00:59:09.324Z,9.73
2018-08-24T01:01:36.622Z,10.47
2018-08-24T01:04:03.931Z,9.17
2018-08-24T01:06:31.260Z,7.93
2018-08-24T01:08:58.558Z,6.43
2018-08-24T01:11:25.878Z,7.73
2018-08-24T01:13:53.188Z,7.53
2018-08-24T01:16:20.498Z,8.00
2018-08-24T01:18:47.786Z,8.60
2018-08-24T01:21:15.155Z,9.03
2018-08-24T01:23:42.442Z,8.13
2018-08-24T01:26:09.756Z,7.63
2018-08-24T01:28:37.066Z,6.93
2018-08-24T01:31:04.365Z,7.30
2018-08-24T01:33:31.731Z,8.03
2018-08-24T01:35:59.056Z,8.43
2018-08-24T01:38:26.369Z,7.70
2018-08-24T01:40:53.678Z,8.93
2018-08-24T01:43:20.990Z,7.93
2018-08-24T01:45:48.584Z,7.20
2018-08-24T01:48:15.906Z,7.30
2018-08-24T01:50:43.236Z,8.07
2018-08-24T01:53:10.540Z,7.37
2018-08-24T01:55:37.846Z,7.30
2018-08-24T01:58:05.212Z,7.80
2018-08-24T02:00:32.524Z,7.83
2018-08-24T02:02:59.842Z,8.40
2018-08-24T02:05:27.151Z,7.93
2018-08-24T02:07:54.452Z,8.03
2018-08-24T02:10:21.742Z,7.50
2018-08-24T02:12:49.058Z,8.70
2018-08-24T02:15:16.356Z,7.23
2018-08-24T02:17:43.690Z,7.50
2018-08-24T02:20:11.007Z,7.90
2018-08-24T02:22:38.336Z,8.17
2018-08-24T02:25:05.654Z,9.20
2018-08-24T02:27:32.967Z,10.90
2018-08-24T02:30:00.301Z,11.00
2018-08-24T02:32:27.605Z,11.53
2018-08-24T02:34:54.908Z,9.73
2018-08-24T02:37:22.217Z,10.30
2018-08-24T02:39:49.518Z,10.40
2018-08-24T02:42:16.821Z,8.97
2018-08-24T02:44:44.128Z,9.63
2018-08-24T02:47:11.443Z,10.23
2018-08-24T02:49:38.766Z,10.20
2018-08-24T02:52:06.083Z,11.17
2018-08-24T02:54:33.432Z,10.63
2018-08-24T02:57:00.751Z,10.10
2018-08-24T02:59:28.059Z,9.93
2018-08-24T03:01:55.435Z,10.60
2018-08-24T03:04:22.831Z,9.30
2018-08-24T03:06:50.145Z,9.53
2018-08-24T03:09:17.454Z,10.33
2018-08-24T03:11:44.784Z,10.50
2018-08-24T03:14:12.118Z,10.50
2018-08-24T03:16:39.511Z,10.33
2018-08-24T03:19:06.816Z,9.70
2018-08-24T03:21:34.124Z,9.87
2018-08-24T03:24:01.454Z,9.13
2018-08-24T03:26:28.776Z,9.30
2018-08-24T03:28:56.096Z,10.37
2018-08-24T03:31:23.420Z,9.40
2018-08-24T03:33:50.733Z,9.53
2018-08-24T03:36:18.044Z,10.07
2018-08-24T03:38:45.352Z,10.30
2018-08-24T03:41:12.656Z,10.17
2018-08-24T03:43:40.320Z,10.57
2018-08-24T03:46:07.640Z,11.10
2018-08-24T03:48:34.973Z,9.60
2018-08-24T03:51:02.430Z,9.70
2018-08-24T03:53:29.772Z,8.63
2018-08-24T03:55:57.089Z,8.63
2018-08-24T03:58:24.399Z,8.57
2018-08-24T04:00:51.715Z,8.90
2018-08-24T04:03:19.015Z,7.77
2018-08-24T04:05:46.347Z,8.63
2018-08-24T04:08:13.650Z,8.80
2018-08-24T04:10:40.968Z,9.77
2018-08-24T04:13:08.275Z,10.97
2018-08-24T04:15:35.607Z,10.33
2018-08-24T04:18:02.932Z,10.80
2018-08-24T04:20:30.253Z,11.23
2018-08-24T04:22:57.571Z,10.30
2018-08-24T04:25:24.895Z,11.53
2018-08-24T04:27:52.187Z,10.10
2018-08-24T04:30:19.513Z,10.53
2018-08-24T04:32:46.835Z,9.03
2018-08-24T04:35:14.155Z,8.87
2018-08-24T04:37:41.511Z,7.50
2018-08-24T04:40:08.876Z,7.80
2018-08-24T04:42:36.185Z,6.27
2018-08-24T04:45:03.643Z,5.53
2018-08-24T04:47:30.970Z,5.77
2018-08-24T04:49:58.303Z,5.13
2018-08-24T04:52:25.648Z,4.97
2018-08-24T04:54:52.990Z,4.10
2018-08-24T04:57:20.279Z,4.67
2018-08-24T04:59:47.596Z,3.80
2018-08-24T05:02:14.975Z,4.10
2018-08-24T05:04:42.299Z,4.30
2018-08-24T05:07:09.622Z,4.47
2018-08-24T05:09:36.955Z,4.10
2018-08-24T05:12:04.682Z,3.70
2018-08-24T05:14:32.024Z,3.67
2018-08-24T05:16:59.364Z,3.43
2018-08-24T05:19:26.681Z,4.00
2018-08-24T05:21:54.027Z,4.43
2018-08-24T05:24:21.317Z,4.00
2018-08-24T05:26:48.689Z,3.73
2018-08-24T05:29:15.993Z,4.00
2018-08-24T05:31:43.508Z,3.90
2018-08-24T05:34:10.838Z,3.10
2018-08-24T05:36:38.218Z,3.03
2018-08-24T05:39:06.601Z,2.90
2018-08-24T05:41:34.061Z,2.73
2018-08-24T05:44:01.289Z,2.40
2018-08-24T05:46:28.633Z,2.90
2018-08-24T05:48:56.010Z,2.63
2018-08-24T05:51:23.263Z,2.80
2018-08-24T05:53:50.566Z,3.10
2018-08-24T05:56:17.891Z,3.00
2018-08-24T05:58:45.203Z,3.20
2018-08-24T06:01:12.546Z,2.40
2018-08-24T06:03:39.850Z,2.30
2018-08-24T06:06:07.174Z,2.50
2018-08-24T06:08:34.483Z,2.50
2018-08-24T06:11:01.791Z,2.27
2018-08-24T06:13:29.099Z,2.20
2018-08-24T06:15:56.440Z,2.27
2018-08-24T06:18:23.747Z,2.07
2018-08-24T06:20:51.287Z,2.00
2018-08-24T06:23:18.715Z,1.90
2018-08-24T06:25:46.091Z,2.27
2018-08-24T06:28:13.382Z,2.00
2018-08-24T06:30:40.884Z,2.13
2018-08-24T06:33:08.238Z,2.00
2018-08-24T06:35:35.560Z,1.80
2018-08-24T06:38:02.903Z,1.73
2018-08-24T06:40:30.226Z,1.80
2018-08-24T06:42:57.578Z,2.20
2018-08-24T06:45:24.855Z,1.93
2018-08-24T06:47:52.180Z,1.93
2018-08-24T06:50:19.467Z,1.83
2018-08-24T06:52:46.813Z,2.03
2018-08-24T06:55:14.157Z,1.97
2018-08-24T06:57:41.575Z,2.00
2018-08-24T07:00:09.043Z,2.20
2018-08-24T07:02:36.336Z,1.80
2018-08-24T07:05:03.661Z,1.80
2018-08-24T07:07:30.972Z,2.00
2018-08-24T07:09:58.331Z,2.00
2018-08-24T07:12:25.636Z,1.80
2018-08-24T07:14:52.961Z,2.47
2018-08-24T07:17:20.279Z,2.00
2018-08-24T07:19:47.879Z,2.57
2018-08-24T07:22:15.183Z,2.73
2018-08-24T07:24:42.500Z,5.00
2018-08-24T07:27:09.824Z,2.20
2018-08-24T07:29:37.181Z,2.53
2018-08-24T07:32:04.544Z,2.70
2018-08-24T07:34:31.911Z,3.37
2018-08-24T07:36:59.266Z,3.50
2018-08-24T07:39:26.585Z,2.20
2018-08-24T07:41:53.993Z,3.47
2018-08-24T07:44:21.217Z,3.53
2018-08-24T07:46:48.527Z,2.87
2018-08-24T07:49:15.836Z,2.87
2018-08-24T07:51:43.180Z,3.40
2018-08-24T07:54:10.570Z,2.77
2018-08-24T07:56:37.908Z,2.33
2018-08-24T07:59:05.206Z,2.83
2018-08-24T08:01:32.536Z,2.87
2018-08-24T08:03:59.854Z,3.10
2018-08-24T08:06:27.237Z,3.20
2018-08-24T08:08:54.524Z,3.63
2018-08-24T08:11:21.855Z,3.70
2018-08-24T08:13:49.184Z,3.57
2018-08-24T08:16:16.535Z,3.80
2018-08-24T08:18:43.877Z,4.40
2018-08-24T08:21:11.199Z,3.67
2018-08-24T08:23:38.592Z,3.90
2018-08-24T08:26:06.065Z,3.73
2018-08-24T08:28:33.458Z,3.80
2018-08-24T08:31:01.144Z,3.60
2018-08-24T08:33:28.488Z,3.40
2018-08-24T08:35:55.838Z,3.60
2018-08-24T08:38:23.172Z,3.70
2018-08-24T08:40:50.541Z,3.27
2018-08-24T08:43:17.841Z,3.50
2018-08-24T08:45:45.195Z,3.60
2018-08-24T08:48:12.542Z,3.60
2018-08-24T08:50:39.929Z,4.07
2018-08-24T08:53:07.299Z,4.20
2018-08-24T08:55:34.639Z,4.00
2018-08-24T08:58:01.957Z,3.73
2018-08-24T09:00:29.311Z,3.43
2018-08-24T09:02:56.636Z,3.50
2018-08-24T09:05:23.975Z,3.40
2018-08-24T09:07:51.320Z,3.33
2018-08-24T09:10:18.639Z,3.77
2018-08-24T09:15:30.619Z,4.10
2018-08-24T09:17:57.923Z,4.07
2018-08-24T09:20:25.253Z,4.83
2018-08-24T09:22:52.560Z,4.20
2018-08-24T09:25:19.926Z,4.27
2018-08-24T09:27:47.196Z,5.13
2018-08-24T09:30:14.525Z,5.17
2018-08-24T09:32:41.944Z,4.53
2018-08-24T09:35:09.260Z,4.83
2018-08-24T09:37:36.576Z,4.70
2018-08-24T09:40:03.919Z,5.20
2018-08-24T09:42:31.220Z,5.77
2018-08-24T09:44:58.537Z,5.00
2018-08-24T09:47:25.847Z,5.63
2018-08-24T09:49:53.208Z,5.87
2018-08-24T09:52:20.519Z,5.53
2018-08-24T09:54:47.887Z,6.00
2018-08-24T09:57:15.256Z,5.17
2018-08-24T09:59:42.560Z,5.30
2018-08-24T10:02:09.981Z,4.83
2018-08-24T10:04:37.304Z,5.67
2018-08-24T10:07:04.667Z,4.90
2018-08-24T10:09:32.009Z,5.57
2018-08-24T10:11:59.326Z,5.67
2018-08-24T10:14:26.684Z,5.33
2018-08-24T10:16:53.975Z,5.83
2018-08-24T10:19:21.294Z,5.13
2018-08-24T10:21:48.648Z,5.47
2018-08-24T10:24:16.154Z,4.80
2018-08-24T10:26:43.446Z,5.30
2018-08-24T10:29:10.934Z,4.40
2018-08-24T10:31:39.116Z,5.27
2018-08-24T10:34:06.428Z,5.60
2018-08-24T10:36:33.740Z,5.23
2018-08-24T10:39:01.074Z,4.93
2018-08-24T10:41:28.367Z,4.90
2018-08-24T10:43:55.665Z,4.17
2018-08-24T10:46:23.008Z,5.10
2018-08-24T10:48:50.292Z,4.50
2018-08-24T10:51:17.645Z,4.30
2018-08-24T10:53:44.964Z,4.77
2018-08-24T10:56:12.444Z,5.20
2018-08-24T10:58:39.643Z,5.00
2018-08-24T11:01:06.938Z,4.37
2018-08-24T11:03:34.292Z,4.60
2018-08-24T11:06:01.832Z,5.10
2018-08-24T11:08:29.187Z,4.47
2018-08-24T11:10:56.507Z,5.53
2018-08-24T11:13:23.828Z,5.17
2018-08-24T11:15:51.180Z,5.27
2018-08-24T11:18:18.588Z,4.70
2018-08-24T11:20:45.932Z,4.53
2018-08-24T11:23:13.339Z,4.70
2018-08-24T11:25:40.708Z,5.00
2018-08-24T11:28:08.143Z,5.03
2018-08-24T11:30:35.509Z,4.83
2018-08-24T11:33:02.841Z,5.40
2018-08-24T11:35:30.195Z,5.50
2018-08-24T11:37:57.561Z,5.07
2018-08-24T11:40:24.941Z,5.47
2018-08-24T11:42:52.276Z,5.20
2018-08-24T11:45:19.623Z,5.37
2018-08-24T11:47:47.012Z,5.30
2018-08-24T11:50:14.376Z,5.10
2018-08-24T11:52:41.762Z,6.00
2018-08-24T11:55:09.152Z,5.80
2018-08-24T11:57:36.523Z,5.50
2018-08-24T12:00:04.081Z,5.13
2018-08-24T12:02:31.469Z,5.47
2018-08-24T12:04:58.774Z,5.20
2018-08-24T12:07:26.179Z,5.23
2018-08-24T12:09:53.484Z,5.00
2018-08-24T12:12:20.811Z,4.50
2018-08-24T12:14:48.158Z,5.20
2018-08-24T12:17:15.444Z,4.37
2018-08-24T12:19:42.796Z,4.47
2018-08-24T12:22:10.166Z,4.70
2018-08-24T12:24:37.507Z,5.80
2018-08-24T12:27:04.846Z,4.77
2018-08-24T12:29:32.176Z,4.50
2018-08-24T12:32:00.504Z,5.40
2018-08-24T12:34:27.923Z,4.60
2018-08-24T12:36:55.211Z,5.17
2018-08-24T12:39:22.524Z,5.13
2018-08-24T12:41:49.896Z,4.93
2018-08-24T12:44:17.218Z,4.80
2018-08-24T12:46:44.580Z,4.60
2018-08-24T12:49:11.923Z,4.30
2018-08-24T12:51:39.315Z,4.97
2018-08-24T12:54:06.855Z,4.77
2018-08-24T12:56:34.185Z,5.00
2018-08-24T12:59:01.503Z,4.80
2018-08-24T13:01:28.840Z,4.70
2018-08-24T13:03:56.160Z,5.13
2018-08-24T13:06:23.485Z,5.00
2018-08-24T13:08:50.774Z,3.67
2018-08-24T13:11:18.103Z,4.50
2018-08-24T13:13:45.406Z,4.00
2018-08-24T13:16:12.722Z,3.90
2018-08-24T13:18:40.082Z,3.43
2018-08-24T13:21:07.436Z,4.67
2018-08-24T13:23:34.770Z,3.73
2018-08-24T13:26:02.109Z,4.00
2018-08-24T13:28:29.498Z,3.37
2018-08-24T13:30:56.831Z,3.10
2018-08-24T13:33:24.129Z,3.23
2018-08-24T13:35:51.470Z,3.57
2018-08-24T13:38:18.812Z,3.20
2018-08-24T13:40:46.176Z,3.73
2018-08-24T13:43:13.563Z,3.57
2018-08-24T13:45:40.902Z,3.60
2018-08-24T13:48:08.319Z,3.00
2018-08-24T13:50:35.669Z,3.53
2018-08-24T13:53:03.104Z,3.63
2018-08-24T13:55:30.572Z,3.27
2018-08-24T13:57:58.228Z,3.60
2018-08-24T14:00:25.667Z,4.20
2018-08-24T14:02:52.999Z,3.10
2018-08-24T14:05:20.407Z,3.43
2018-08-24T14:07:47.718Z,3.10
2018-08-24T14:10:15.070Z,3.70
2018-08-24T14:12:42.442Z,3.17
2018-08-24T14:15:09.781Z,3.10
2018-08-24T14:17:37.167Z,2.90
2018-08-24T14:20:04.608Z,3.30
2018-08-24T14:22:31.983Z,3.70
2018-08-24T14:24:59.333Z,2.80
2018-08-24T14:27:26.645Z,3.33
2018-08-24T14:29:53.975Z,3.20
2018-08-24T14:32:21.321Z,3.30
2018-08-24T14:34:48.662Z,3.10
2018-08-24T14:37:15.972Z,2.77
2018-08-24T14:39:43.356Z,3.03
2018-08-24T14:42:10.811Z,2.70
2018-08-24T14:44:38.178Z,2.80
2018-08-24T14:47:05.512Z,2.97
2018-08-24T14:49:32.840Z,3.03
2018-08-24T14:54:44.603Z,3.37
2018-08-24T14:57:12.084Z,2.87
2018-08-24T14:59:39.572Z,3.43
2018-08-24T15:02:06.930Z,3.13
2018-08-24T15:04:34.466Z,3.27
2018-08-24T15:07:01.657Z,3.40
2018-08-24T15:09:29.042Z,3.23
2018-08-24T15:11:56.362Z,3.17
2018-08-24T15:14:23.753Z,3.20
2018-08-24T15:16:51.109Z,3.80
2018-08-24T15:19:18.365Z,3.73
2018-08-24T15:21:45.752Z,4.70
2018-08-24T15:24:13.068Z,3.43
2018-08-24T15:26:40.436Z,3.33
2018-08-24T15:29:07.779Z,4.03
2018-08-24T15:31:35.377Z,3.93
2018-08-24T15:34:02.708Z,4.30
2018-08-24T15:36:30.012Z,4.10
2018-08-24T15:38:57.347Z,3.97
2018-08-24T15:41:24.618Z,3.87
2018-08-24T15:43:51.920Z,4.23
2018-08-24T15:46:19.347Z,4.40
2018-08-24T15:48:46.579Z,4.33
2018-08-24T15:51:14.007Z,4.20
2018-08-24T15:53:41.389Z,4.50
2018-08-24T15:56:08.697Z,4.80
2018-08-24T15:58:35.999Z,3.87
2018-08-24T16:01:03.352Z,3.60
2018-08-24T16:03:30.690Z,3.63
2018-08-24T16:05:58.033Z,3.90
2018-08-24T16:08:25.318Z,3.97
2018-08-24T16:10:52.608Z,3.90
2018-08-24T16:13:19.938Z,3.27
2018-08-24T16:15:47.264Z,3.77
2018-08-24T16:18:14.622Z,4.30
2018-08-24T16:20:41.958Z,4.30
2018-08-24T16:23:09.459Z,3.43
2018-08-24T16:25:36.793Z,3.67
2018-08-24T16:28:04.128Z,3.40
2018-08-24T16:30:31.418Z,3.60
2018-08-24T16:32:58.766Z,3.50
2018-08-24T16:35:26.062Z,4.20
2018-08-24T16:37:53.546Z,3.47
2018-08-24T16:40:20.883Z,4.00
2018-08-24T16:42:48.295Z,3.40
2018-08-24T16:45:15.606Z,3.37
2018-08-24T16:47:42.952Z,4.47
2018-08-24T16:50:10.258Z,3.90
2018-08-24T16:52:37.665Z,3.00
2018-08-24T16:55:04.951Z,3.70
2018-08-24T16:57:32.365Z,3.60
2018-08-24T16:59:59.658Z,3.83
2018-08-24T17:02:27.077Z,3.87
2018-08-24T17:04:54.381Z,3.50
2018-08-24T17:07:21.725Z,3.73
2018-08-24T17:09:49.071Z,4.40
2018-08-24T17:12:16.406Z,3.30
2018-08-24T17:14:43.720Z,3.60
2018-08-24T17:17:11.081Z,3.70
2018-08-24T17:19:38.510Z,3.00
2018-08-24T17:22:05.936Z,3.20
2018-08-24T17:24:33.417Z,3.60
2018-08-24T17:27:00.778Z,3.30
2018-08-24T17:29:28.148Z,3.07
2018-08-24T17:31:55.502Z,3.00
2018-08-24T17:34:22.825Z,3.00
2018-08-24T17:36:50.190Z,3.07
2018-08-24T17:39:17.637Z,3.40
2018-08-24T17:41:45.022Z,3.07
2018-08-24T17:44:12.347Z,3.13
2018-08-24T17:46:39.727Z,4.00
2018-08-24T17:49:07.134Z,3.30
2018-08-24T17:51:34.717Z,3.10
2018-08-24T17:54:02.087Z,3.10
2018-08-24T17:56:29.407Z,3.20
2018-08-24T17:58:56.798Z,2.87
2018-08-24T18:01:24.155Z,2.80
2018-08-24T18:03:51.465Z,2.73
2018-08-24T18:06:18.825Z,2.67
2018-08-24T18:08:46.178Z,3.10
2018-08-24T18:11:13.538Z,3.03
2018-08-24T18:13:40.915Z,2.97
2018-08-24T18:16:08.242Z,2.93
2018-08-24T18:18:35.678Z,3.47
2018-08-24T18:21:03.048Z,3.13
2018-08-24T18:23:31.274Z,2.97
2018-08-24T18:25:58.634Z,2.90
2018-08-24T18:28:25.967Z,3.10
2018-08-24T18:30:53.338Z,3.80
2018-08-24T18:33:20.650Z,2.90
2018-08-24T18:35:48.041Z,3.10
2018-08-24T18:38:15.349Z,2.93
2018-08-24T18:40:42.684Z,3.10
2018-08-24T18:43:09.955Z,3.00
2018-08-24T18:45:37.250Z,3.23
2018-08-24T18:48:04.777Z,3.40
2018-08-24T18:50:32.100Z,3.07
2018-08-24T18:52:59.588Z,3.00
2018-08-24T18:55:26.954Z,2.90
2018-08-24T18:57:54.525Z,3.20
2018-08-24T19:00:21.835Z,2.80
2018-08-24T19:02:49.139Z,2.67
2018-08-24T19:05:16.520Z,2.53
2018-08-24T19:07:43.814Z,2.20
2018-08-24T19:10:11.148Z,2.70
2018-08-24T19:12:38.494Z,2.70
2018-08-24T19:15:05.848Z,2.70
2018-08-24T19:17:33.236Z,3.00
2018-08-24T19:20:00.543Z,2.80
2018-08-24T19:22:27.872Z,2.30
2018-08-24T19:24:55.302Z,2.20
2018-08-24T19:27:22.647Z,2.80
2018-08-24T19:29:49.994Z,2.57
2018-08-24T19:32:17.380Z,2.43
2018-08-24T19:34:44.705Z,2.73
2018-08-24T19:37:12.041Z,2.43
2018-08-24T19:39:39.381Z,2.70
2018-08-24T19:42:06.765Z,2.70
2018-08-24T19:44:34.236Z,2.67
2018-08-24T19:47:01.628Z,2.83
2018-08-24T19:49:29.055Z,2.73
2018-08-24T19:51:56.301Z,2.80
2018-08-24T19:54:23.642Z,2.80
2018-08-24T19:56:50.979Z,2.70
2018-08-24T19:59:18.530Z,2.50
2018-08-24T20:01:45.865Z,3.70
2018-08-24T20:04:13.202Z,3.30
2018-08-24T20:06:40.592Z,3.20
2018-08-24T20:09:10.463Z,2.73
2018-08-24T20:11:37.787Z,3.03
2018-08-24T20:14:05.124Z,2.93
2018-08-24T20:16:32.439Z,2.67
2018-08-24T20:18:59.729Z,3.30
2018-08-24T20:21:27.025Z,2.20
2018-08-24T20:23:54.315Z,2.40
2018-08-24T20:26:21.632Z,2.67
2018-08-24T20:28:48.908Z,2.53
2018-08-24T20:31:16.212Z,2.53
2018-08-24T20:33:43.561Z,2.60
2018-08-24T20:36:10.839Z,2.23
2018-08-24T20:38:38.199Z,2.73
2018-08-24T20:41:05.518Z,2.30
2018-08-24T20:43:32.844Z,3.20
2018-08-24T20:46:00.163Z,2.87
2018-08-24T20:48:27.483Z,2.50
2018-08-24T20:50:54.778Z,2.17
2018-08-24T20:53:22.090Z,2.27
2018-08-24T20:55:49.387Z,2.43
2018-08-24T20:58:16.679Z,2.80
2018-08-24T21:00:43.987Z,2.20
2018-08-24T21:03:11.353Z,2.50
2018-08-24T21:05:38.676Z,3.20
2018-08-24T21:08:06.046Z,3.03
2018-08-24T21:10:33.382Z,2.90
2018-08-24T21:13:00.678Z,2.50
2018-08-24T21:15:28.017Z,3.40
2018-08-24T21:17:55.303Z,3.17
2018-08-24T21:20:22.603Z,2.50
2018-08-24T21:22:49.976Z,2.27
2018-08-24T21:25:17.266Z,2.73
2018-08-24T21:27:44.566Z,2.23
2018-08-24T21:30:11.966Z,2.43
2018-08-24T21:32:39.191Z,2.33
2018-08-24T21:35:06.535Z,2.87
2018-08-24T21:37:33.855Z,2.77
2018-08-24T21:40:01.252Z,2.27
2018-08-24T21:42:28.567Z,2.50
2018-08-24T21:44:55.959Z,2.50
2018-08-24T21:47:23.265Z,2.87
2018-08-24T21:49:50.584Z,2.90
2018-08-24T21:52:17.952Z,2.10
2018-08-24T21:54:45.242Z,2.40
2018-08-24T21:57:12.581Z,2.60
2018-08-24T21:59:39.895Z,2.40
2018-08-24T22:02:07.259Z,2.47
2018-08-24T22:04:34.587Z,2.80
2018-08-24T22:07:02.039Z,2.53
2018-08-24T22:09:29.370Z,2.40
2018-08-24T22:11:56.657Z,1.73
2018-08-24T22:14:23.982Z,2.80
2018-08-24T22:16:51.302Z,1.70
2018-08-24T22:19:18.606Z,1.90
2018-08-24T22:21:45.962Z,2.07
2018-08-24T22:24:13.289Z,2.30
2018-08-24T22:26:40.688Z,1.93
2018-08-24T22:29:08.068Z,2.03
2018-08-24T22:31:35.392Z,2.23
2018-08-24T22:34:02.708Z,2.90
2018-08-24T22:36:29.995Z,2.20
2018-08-24T22:38:57.334Z,2.10
2018-08-24T22:41:24.724Z,2.10
2018-08-24T22:43:52.178Z,2.00
2018-08-24T22:46:19.817Z,1.60
2018-08-24T22:48:47.120Z,1.77
2018-08-24T22:51:14.471Z,1.93
2018-08-24T22:53:41.789Z,1.70
2018-08-24T22:56:09.102Z,1.70
2018-08-24T22:58:36.504Z,1.90
2018-08-24T23:01:03.813Z,1.40
2018-08-24T23:03:31.125Z,1.83
2018-08-24T23:05:58.445Z,2.17
2018-08-24T23:08:25.740Z,1.93
2018-08-24T23:10:53.092Z,1.73
2018-08-24T23:13:20.491Z,1.50
2018-08-24T23:15:47.962Z,1.60
2018-08-24T23:18:15.294Z,2.40
2018-08-24T23:20:42.617Z,1.50
2018-08-24T23:23:10.162Z,1.40
2018-08-24T23:25:37.506Z,1.80
2018-08-24T23:28:05.086Z,1.40
2018-08-24T23:30:32.482Z,1.40
2018-08-24T23:32:59.942Z,1.50
2018-08-24T23:35:27.267Z,1.87
2018-08-24T23:37:54.603Z,1.70
2018-08-24T23:40:21.903Z,1.43
2018-08-24T23:42:49.258Z,1.80
2018-08-24T23:45:16.585Z,1.50
2018-08-24T23:47:43.945Z,1.33
2018-08-24T23:50:11.295Z,1.43
2018-08-24T23:52:39.052Z,2.00
2018-08-24T23:55:06.395Z,1.80
2018-08-24T23:57:33.788Z,2.13
